DLH2411 LEBL-EDDF
Flight info
| Callsign | DLH2411 |
|---|---|
| Flight time | N/A |
| Altitude | 36000 |
| Route | DALIN2J DALIN DCT PIVUS DCT DIBER DCT ADITA DCT MAXIR DCT LUSOL DCT BODRU DCT OKTET DCT IRMAR DCT KINES DCT VANAS DCT ESOKO DCT GODRA/N0446F350 DCT LADOL/N0449F360 T163 EMPAX EMPAX5B |
| Aircraft | A321/M-SDE3FGHIRWY/LB1 |
Departure
| Time | 2026-05-06 11:04 |
|---|---|
| Airport | Josep Tarradellas Barcelona-El Prat Airport (LEBL) |
Arrival
| Time | N/A |
|---|---|
| Airport | Frankfurt Main Airport (EDDF) |
| Time | Latitude | Longitude | Altitude | Speed | Heading |
|---|---|---|---|---|---|
| 2026-05-06 10:18 | 41.28943 | 2.07782 | 19 ft | 0 kts | 335° |
| 2026-05-06 10:22 | 41.28938 | 2.07785 | 19 ft | 4 kts | 335° |
| 2026-05-06 10:22 | 41.28914 | 2.07800 | 20 ft | 4 kts | 335° |
| 2026-05-06 10:23 | 41.28895 | 2.07811 | 21 ft | 4 kts | 331° |
| 2026-05-06 10:23 | 41.28872 | 2.07831 | 22 ft | 4 kts | 329° |
| 2026-05-06 10:23 | 41.28853 | 2.07844 | 22 ft | 4 kts | 335° |
| 2026-05-06 10:23 | 41.28829 | 2.07859 | 21 ft | 4 kts | 335° |
| 2026-05-06 10:24 | 41.28819 | 2.07865 | 20 ft | 0 kts | 335° |
| 2026-05-06 10:40 | 41.28833 | 2.07858 | 21 ft | 6 kts | 343° |
| 2026-05-06 10:40 | 41.28881 | 2.07876 | 20 ft | 9 kts | 41° |
| 2026-05-06 10:40 | 41.28912 | 2.07960 | 19 ft | 12 kts | 66° |
| 2026-05-06 10:40 | 41.28951 | 2.08076 | 21 ft | 15 kts | 66° |
| 2026-05-06 10:41 | 41.28999 | 2.08217 | 19 ft | 15 kts | 65° |
| 2026-05-06 10:41 | 41.29048 | 2.08355 | 19 ft | 15 kts | 63° |
| 2026-05-06 10:41 | 41.29130 | 2.08413 | 21 ft | 15 kts | 19° |
| 2026-05-06 10:41 | 41.29226 | 2.08453 | 21 ft | 13 kts | 5° |
| 2026-05-06 10:42 | 41.29320 | 2.08406 | 22 ft | 17 kts | 337° |
| 2026-05-06 10:42 | 41.29441 | 2.08334 | 18 ft | 21 kts | 335° |
| 2026-05-06 10:42 | 41.29577 | 2.08252 | 16 ft | 10 kts | 335° |
| 2026-05-06 10:42 | 41.29647 | 2.08210 | 17 ft | 12 kts | 335° |
| 2026-05-06 10:43 | 41.29734 | 2.08158 | 18 ft | 15 kts | 336° |
| 2026-05-06 10:43 | 41.29799 | 2.08121 | 19 ft | 16 kts | 336° |
| 2026-05-06 10:43 | 41.29918 | 2.08059 | 19 ft | 19 kts | 342° |
| 2026-05-06 10:44 | 41.30071 | 2.08186 | 19 ft | 18 kts | 67° |
| 2026-05-06 10:44 | 41.30121 | 2.08332 | 21 ft | 15 kts | 65° |
| 2026-05-06 10:44 | 41.30168 | 2.08472 | 20 ft | 18 kts | 66° |
| 2026-05-06 10:44 | 41.30224 | 2.08641 | 19 ft | 22 kts | 66° |
| 2026-05-06 10:45 | 41.30295 | 2.08813 | 19 ft | 13 kts | 69° |
| 2026-05-06 10:45 | 41.30332 | 2.08917 | 18 ft | 5 kts | 25° |
| 2026-05-06 10:45 | 41.30340 | 2.08914 | 18 ft | 5 kts | 342° |
| 2026-05-06 10:56 | 41.30345 | 2.08911 | 20 ft | 6 kts | 338° |
| 2026-05-06 10:56 | 41.30390 | 2.08923 | 18 ft | 8 kts | 58° |
| 2026-05-06 10:56 | 41.30443 | 2.08975 | 18 ft | 11 kts | 26° |
| 2026-05-06 10:57 | 41.30528 | 2.09018 | 18 ft | 15 kts | 18° |
| 2026-05-06 10:57 | 41.30617 | 2.09059 | 19 ft | 14 kts | 18° |
| 2026-05-06 10:57 | 41.30722 | 2.09105 | 21 ft | 14 kts | 18° |
| 2026-05-06 10:57 | 41.30800 | 2.09142 | 19 ft | 13 kts | 20° |
| 2026-05-06 10:58 | 41.30896 | 2.09189 | 22 ft | 16 kts | 24° |
| 2026-05-06 10:58 | 41.30945 | 2.09288 | 21 ft | 14 kts | 62° |
| 2026-05-06 10:58 | 41.30959 | 2.09379 | 21 ft | 9 kts | 112° |
| 2026-05-06 10:58 | 41.30906 | 2.09439 | 22 ft | 11 kts | 163° |
| 2026-05-06 10:59 | 41.30857 | 2.09432 | 24 ft | 0 kts | 195° |
| 2026-05-06 11:03 | 41.30798 | 2.09408 | 22 ft | 42 kts | 198° |
| 2026-05-06 11:04 | 41.30131 | 2.09102 | 20 ft | 155 kts | 199° |
| 2026-05-06 11:04 | 41.28971 | 2.08608 | 864 ft | 185 kts | 195° |
| 2026-05-06 11:04 | 41.27697 | 2.08135 | 2349 ft | 193 kts | 194° |
| 2026-05-06 11:04 | 41.26334 | 2.07872 | 3328 ft | 198 kts | 188° |
| 2026-05-06 11:05 | 41.24982 | 2.07734 | 4234 ft | 194 kts | 185° |
| 2026-05-06 11:05 | 41.23638 | 2.07684 | 5095 ft | 193 kts | 184° |
| 2026-05-06 11:05 | 41.22258 | 2.07391 | 5617 ft | 208 kts | 194° |
| 2026-05-06 11:05 | 41.20837 | 2.06921 | 5932 ft | 215 kts | 196° |
| 2026-05-06 11:06 | 41.19375 | 2.06429 | 5978 ft | 215 kts | 195° |
| 2026-05-06 11:06 | 41.17921 | 2.05967 | 5981 ft | 215 kts | 194° |
| 2026-05-06 11:06 | 41.16419 | 2.05603 | 6066 ft | 230 kts | 189° |
| 2026-05-06 11:06 | 41.14783 | 2.05414 | 6985 ft | 237 kts | 185° |
| 2026-05-06 11:07 | 41.13126 | 2.05340 | 8074 ft | 240 kts | 184° |
| 2026-05-06 11:07 | 41.11467 | 2.05296 | 9162 ft | 242 kts | 184° |
| 2026-05-06 11:07 | 41.09772 | 2.05249 | 10213 ft | 245 kts | 185° |
| 2026-05-06 11:07 | 41.08057 | 2.05195 | 11208 ft | 247 kts | 185° |
| 2026-05-06 11:08 | 41.06329 | 2.05130 | 12184 ft | 250 kts | 185° |
| 2026-05-06 11:08 | 41.04578 | 2.05055 | 13178 ft | 253 kts | 185° |
| 2026-05-06 11:08 | 41.02807 | 2.04977 | 14119 ft | 256 kts | 184° |
| 2026-05-06 11:08 | 41.01018 | 2.05380 | 14946 ft | 269 kts | 163° |
| 2026-05-06 11:09 | 40.99415 | 2.06777 | 15633 ft | 294 kts | 140° |
| 2026-05-06 11:09 | 40.98293 | 2.09234 | 15936 ft | 332 kts | 116° |
| 2026-05-06 11:09 | 40.97506 | 2.12190 | 16186 ft | 356 kts | 114° |
| 2026-05-06 11:09 | 40.96684 | 2.15416 | 16424 ft | 380 kts | 113° |
| 2026-05-06 11:10 | 40.95832 | 2.18801 | 16954 ft | 391 kts | 113° |
| 2026-05-06 11:10 | 40.95221 | 2.22333 | 17594 ft | 405 kts | 99° |
| 2026-05-06 11:10 | 40.95293 | 2.26127 | 18265 ft | 418 kts | 83° |
| 2026-05-06 11:10 | 40.96136 | 2.29855 | 18852 ft | 428 kts | 66° |
| 2026-05-06 11:11 | 40.97719 | 2.33173 | 19450 ft | 433 kts | 49° |
| 2026-05-06 11:11 | 40.99831 | 2.36072 | 20052 ft | 438 kts | 44° |
| 2026-05-06 11:11 | 41.02004 | 2.38955 | 20648 ft | 443 kts | 43° |
| 2026-05-06 11:11 | 41.04197 | 2.41865 | 21225 ft | 449 kts | 43° |
| 2026-05-06 11:12 | 41.06391 | 2.44781 | 21802 ft | 454 kts | 43° |
| 2026-05-06 11:12 | 41.08641 | 2.47782 | 22363 ft | 460 kts | 43° |
| 2026-05-06 11:12 | 41.10908 | 2.50817 | 22929 ft | 465 kts | 43° |
| 2026-05-06 11:12 | 41.13200 | 2.53890 | 23473 ft | 471 kts | 44° |
| 2026-05-06 11:13 | 41.15515 | 2.57000 | 23963 ft | 476 kts | 43° |
| 2026-05-06 11:13 | 41.17831 | 2.60117 | 24450 ft | 480 kts | 43° |
| 2026-05-06 11:13 | 41.20188 | 2.63293 | 24956 ft | 483 kts | 43° |
| 2026-05-06 11:13 | 41.22568 | 2.66502 | 25449 ft | 487 kts | 43° |
| 2026-05-06 11:14 | 41.24957 | 2.69725 | 25843 ft | 491 kts | 43° |
| 2026-05-06 11:14 | 41.27362 | 2.72977 | 25975 ft | 491 kts | 43° |
| 2026-05-06 11:14 | 41.29731 | 2.76182 | 25977 ft | 491 kts | 43° |
| 2026-05-06 11:14 | 41.32138 | 2.79439 | 25973 ft | 491 kts | 43° |
| 2026-05-06 11:15 | 41.34540 | 2.82685 | 25984 ft | 491 kts | 43° |
| 2026-05-06 11:15 | 41.36919 | 2.85899 | 25981 ft | 491 kts | 43° |
| 2026-05-06 11:15 | 41.39318 | 2.89147 | 25978 ft | 490 kts | 43° |
| 2026-05-06 11:15 | 41.41719 | 2.92404 | 25983 ft | 490 kts | 44° |
| 2026-05-06 11:16 | 41.44079 | 2.95616 | 25978 ft | 490 kts | 44° |
| 2026-05-06 11:16 | 41.46482 | 2.98895 | 25986 ft | 499 kts | 44° |
| 2026-05-06 11:16 | 41.48961 | 3.02276 | 25979 ft | 515 kts | 44° |
| 2026-05-06 11:16 | 41.51503 | 3.05745 | 25970 ft | 529 kts | 44° |
| 2026-05-06 11:17 | 41.54073 | 3.09256 | 25972 ft | 540 kts | 44° |
| 2026-05-06 11:17 | 41.56730 | 3.12891 | 25975 ft | 548 kts | 44° |
| 2026-05-06 11:17 | 41.59411 | 3.16566 | 25976 ft | 553 kts | 44° |
| 2026-05-06 11:17 | 41.62094 | 3.20253 | 25982 ft | 554 kts | 44° |
| 2026-05-06 11:18 | 41.64790 | 3.23960 | 25970 ft | 554 kts | 44° |
| 2026-05-06 11:18 | 41.67482 | 3.27667 | 25971 ft | 555 kts | 44° |
| 2026-05-06 11:18 | 41.70141 | 3.31336 | 25983 ft | 554 kts | 45° |
| 2026-05-06 11:18 | 41.72639 | 3.35285 | 25973 ft | 555 kts | 54° |
| 2026-05-06 11:19 | 41.74654 | 3.39703 | 25971 ft | 555 kts | 64° |
| 2026-05-06 11:19 | 41.76254 | 3.44400 | 25987 ft | 555 kts | 67° |
| 2026-05-06 11:19 | 41.77828 | 3.49140 | 25990 ft | 554 kts | 67° |
| 2026-05-06 11:19 | 41.79381 | 3.53818 | 25973 ft | 554 kts | 67° |
| 2026-05-06 11:20 | 41.80958 | 3.58568 | 25975 ft | 554 kts | 67° |
| 2026-05-06 11:20 | 41.82511 | 3.63262 | 25991 ft | 555 kts | 67° |
| 2026-05-06 11:20 | 41.84078 | 3.68014 | 25973 ft | 554 kts | 67° |
| 2026-05-06 11:20 | 41.85623 | 3.72713 | 25971 ft | 555 kts | 67° |
| 2026-05-06 11:21 | 41.87184 | 3.77470 | 25985 ft | 555 kts | 68° |
| 2026-05-06 11:21 | 41.88743 | 3.82225 | 25984 ft | 555 kts | 67° |
| 2026-05-06 11:21 | 41.90291 | 3.86951 | 25976 ft | 554 kts | 68° |
| 2026-05-06 11:21 | 41.91840 | 3.91693 | 25974 ft | 554 kts | 68° |
| 2026-05-06 11:22 | 41.93394 | 3.96441 | 25989 ft | 554 kts | 67° |
| 2026-05-06 11:22 | 41.94949 | 4.01193 | 25980 ft | 554 kts | 68° |
| 2026-05-06 11:22 | 41.96484 | 4.05894 | 25974 ft | 554 kts | 68° |
| 2026-05-06 11:22 | 41.98030 | 4.10649 | 25995 ft | 554 kts | 68° |
| 2026-05-06 11:23 | 41.99571 | 4.15399 | 25992 ft | 554 kts | 68° |
| 2026-05-06 11:23 | 42.01103 | 4.20140 | 25975 ft | 554 kts | 68° |
| 2026-05-06 11:23 | 42.02639 | 4.24899 | 25974 ft | 553 kts | 68° |
| 2026-05-06 11:23 | 42.04174 | 4.29666 | 25996 ft | 553 kts | 68° |
| 2026-05-06 11:24 | 42.05681 | 4.34352 | 25988 ft | 553 kts | 68° |
| 2026-05-06 11:24 | 42.07428 | 4.38968 | 25975 ft | 554 kts | 59° |
| 2026-05-06 11:24 | 42.09694 | 4.43178 | 25972 ft | 554 kts | 49° |
| 2026-05-06 11:24 | 42.12410 | 4.46836 | 25994 ft | 552 kts | 39° |
| 2026-05-06 11:25 | 42.15289 | 4.50271 | 25976 ft | 552 kts | 39° |
| 2026-05-06 11:25 | 42.18159 | 4.53709 | 25981 ft | 552 kts | 40° |
| 2026-05-06 11:25 | 42.21026 | 4.57159 | 25980 ft | 552 kts | 40° |
| 2026-05-06 11:25 | 42.23888 | 4.60616 | 25982 ft | 551 kts | 40° |
| 2026-05-06 11:26 | 42.26711 | 4.64038 | 25979 ft | 551 kts | 40° |
| 2026-05-06 11:26 | 42.29561 | 4.67501 | 25979 ft | 551 kts | 40° |
| 2026-05-06 11:26 | 42.32419 | 4.70976 | 25974 ft | 552 kts | 40° |
| 2026-05-06 11:26 | 42.35267 | 4.74439 | 25976 ft | 552 kts | 40° |
| 2026-05-06 11:27 | 42.38131 | 4.77920 | 25973 ft | 552 kts | 40° |
| 2026-05-06 11:27 | 42.40983 | 4.81388 | 25974 ft | 552 kts | 40° |
| 2026-05-06 11:27 | 42.43845 | 4.84865 | 25972 ft | 552 kts | 40° |
| 2026-05-06 11:27 | 42.45740 | 4.87168 | 25972 ft | 552 kts | 40° |
| 2026-05-06 11:28 | 42.48601 | 4.90648 | 25973 ft | 552 kts | 40° |
| 2026-05-06 11:28 | 42.51465 | 4.94140 | 25972 ft | 552 kts | 40° |
| 2026-05-06 11:28 | 42.54321 | 4.97637 | 25970 ft | 552 kts | 40° |
| 2026-05-06 11:28 | 42.57169 | 5.01135 | 25970 ft | 552 kts | 40° |
| 2026-05-06 11:29 | 42.60016 | 5.04635 | 25970 ft | 552 kts | 40° |
| 2026-05-06 11:29 | 42.62822 | 5.08082 | 25967 ft | 552 kts | 40° |
| 2026-05-06 11:29 | 42.65686 | 5.11604 | 25964 ft | 552 kts | 40° |
| 2026-05-06 11:29 | 42.68536 | 5.15112 | 25964 ft | 552 kts | 40° |
| 2026-05-06 11:30 | 42.71395 | 5.18638 | 25964 ft | 552 kts | 40° |
| 2026-05-06 11:30 | 42.74206 | 5.22109 | 25961 ft | 552 kts | 40° |
| 2026-05-06 11:30 | 42.77049 | 5.25619 | 25962 ft | 553 kts | 40° |
| 2026-05-06 11:30 | 42.79900 | 5.29146 | 25959 ft | 553 kts | 40° |
| 2026-05-06 11:31 | 42.82761 | 5.32695 | 25958 ft | 553 kts | 40° |
| 2026-05-06 11:31 | 42.85604 | 5.36224 | 25956 ft | 553 kts | 41° |
| 2026-05-06 11:31 | 42.88451 | 5.39765 | 25951 ft | 553 kts | 41° |
| 2026-05-06 11:31 | 42.91291 | 5.43301 | 25956 ft | 553 kts | 41° |
| 2026-05-06 11:32 | 42.94129 | 5.46836 | 25950 ft | 553 kts | 41° |
| 2026-05-06 11:32 | 42.96939 | 5.50340 | 25955 ft | 553 kts | 41° |
| 2026-05-06 11:32 | 42.99820 | 5.53933 | 25948 ft | 553 kts | 41° |
| 2026-05-06 11:32 | 43.02625 | 5.57432 | 25947 ft | 553 kts | 41° |
| 2026-05-06 11:33 | 43.05459 | 5.60977 | 25947 ft | 553 kts | 41° |
| 2026-05-06 11:33 | 43.08299 | 5.64539 | 25941 ft | 553 kts | 41° |
| 2026-05-06 11:33 | 43.11135 | 5.68097 | 25940 ft | 554 kts | 41° |
| 2026-05-06 11:33 | 43.13975 | 5.71665 | 25938 ft | 554 kts | 41° |
| 2026-05-06 11:34 | 43.16811 | 5.75238 | 25934 ft | 553 kts | 41° |
| 2026-05-06 11:34 | 43.19636 | 5.78804 | 25939 ft | 553 kts | 41° |
| 2026-05-06 11:34 | 43.22471 | 5.82386 | 25936 ft | 554 kts | 41° |
| 2026-05-06 11:34 | 43.25306 | 5.85970 | 25928 ft | 554 kts | 41° |
| 2026-05-06 11:35 | 43.28137 | 5.89550 | 25928 ft | 553 kts | 41° |
| 2026-05-06 11:35 | 43.30958 | 5.93130 | 25923 ft | 554 kts | 41° |
| 2026-05-06 11:35 | 43.33786 | 5.96715 | 25925 ft | 554 kts | 40° |
| 2026-05-06 11:35 | 43.36844 | 5.99936 | 25920 ft | 551 kts | 30° |
| 2026-05-06 11:36 | 43.40213 | 6.02395 | 25920 ft | 547 kts | 19° |
| 2026-05-06 11:36 | 43.43792 | 6.04038 | 25914 ft | 540 kts | 9° |
| 2026-05-06 11:36 | 43.47470 | 6.04848 | 25919 ft | 532 kts | 359° |
| 2026-05-06 11:36 | 43.51146 | 6.05212 | 25917 ft | 531 kts | 358° |
| 2026-05-06 11:37 | 43.54850 | 6.05583 | 25914 ft | 532 kts | 358° |
| 2026-05-06 11:37 | 43.58532 | 6.05958 | 25915 ft | 532 kts | 359° |
| 2026-05-06 11:37 | 43.62216 | 6.06337 | 25905 ft | 532 kts | 359° |
| 2026-05-06 11:37 | 43.65480 | 6.06649 | 25918 ft | 529 kts | 357° |
| 2026-05-06 11:38 | 43.69144 | 6.06786 | 25886 ft | 525 kts | 353° |
| 2026-05-06 11:38 | 43.72783 | 6.06477 | 25709 ft | 521 kts | 346° |
| 2026-05-06 11:38 | 43.76330 | 6.05529 | 25369 ft | 518 kts | 338° |
| 2026-05-06 11:38 | 43.79649 | 6.03823 | 24899 ft | 513 kts | 327° |
| 2026-05-06 11:39 | 43.82645 | 6.01235 | 24400 ft | 505 kts | 314° |
| 2026-05-06 11:39 | 43.85068 | 5.97807 | 23938 ft | 493 kts | 300° |
| 2026-05-06 11:39 | 43.86701 | 5.93717 | 23554 ft | 479 kts | 284° |
| 2026-05-06 11:39 | 43.87372 | 5.89284 | 23150 ft | 465 kts | 268° |
| 2026-05-06 11:40 | 43.87005 | 5.84904 | 22736 ft | 454 kts | 251° |
| 2026-05-06 11:40 | 43.85636 | 5.81015 | 22236 ft | 450 kts | 234° |
| 2026-05-06 11:40 | 43.83379 | 5.78016 | 21635 ft | 454 kts | 216° |
| 2026-05-06 11:40 | 43.80448 | 5.76300 | 20859 ft | 466 kts | 196° |
| 2026-05-06 11:41 | 43.77164 | 5.76170 | 19998 ft | 484 kts | 175° |
| 2026-05-06 11:41 | 43.73955 | 5.77770 | 19134 ft | 502 kts | 154° |
| 2026-05-06 11:41 | 43.71323 | 5.81015 | 18345 ft | 517 kts | 131° |
| 2026-05-06 11:41 | 43.69769 | 5.85510 | 17489 ft | 527 kts | 107° |
| 2026-05-06 11:42 | 43.69626 | 5.90565 | 16671 ft | 531 kts | 82° |
| 2026-05-06 11:42 | 43.70912 | 5.95233 | 16026 ft | 528 kts | 58° |
| 2026-05-06 11:42 | 43.73392 | 5.98869 | 15660 ft | 517 kts | 35° |
| 2026-05-06 11:42 | 43.76565 | 6.00972 | 15712 ft | 499 kts | 13° |
| 2026-05-06 11:43 | 43.79943 | 6.01328 | 15888 ft | 482 kts | 350° |
| 2026-05-06 11:43 | 43.83082 | 5.99983 | 15950 ft | 468 kts | 328° |
| 2026-05-06 11:43 | 43.85570 | 5.97178 | 15857 ft | 458 kts | 306° |
| 2026-05-06 11:44 | 43.87376 | 5.89082 | 15495 ft | 445 kts | 262° |
| 2026-05-06 11:44 | 43.86476 | 5.85115 | 15373 ft | 442 kts | 240° |
| 2026-05-06 11:44 | 43.84479 | 5.81929 | 15291 ft | 443 kts | 218° |
| 2026-05-06 11:44 | 43.81697 | 5.80129 | 15190 ft | 448 kts | 195° |
| 2026-05-06 11:45 | 43.78564 | 5.80054 | 15025 ft | 458 kts | 172° |
| 2026-05-06 11:45 | 43.75608 | 5.81787 | 14808 ft | 472 kts | 148° |
| 2026-05-06 11:45 | 43.73367 | 5.85057 | 14552 ft | 484 kts | 124° |
| 2026-05-06 11:45 | 43.72209 | 5.89453 | 14314 ft | 493 kts | 100° |
| 2026-05-06 11:46 | 43.72423 | 5.94184 | 14122 ft | 498 kts | 76° |
| 2026-05-06 11:46 | 43.73992 | 5.98416 | 13955 ft | 498 kts | 51° |
| 2026-05-06 11:46 | 43.76640 | 6.01412 | 13843 ft | 493 kts | 26° |
| 2026-05-06 11:46 | 43.79893 | 6.02675 | 13776 ft | 483 kts | 1° |
| 2026-05-06 11:47 | 43.83161 | 6.02035 | 13778 ft | 471 kts | 337° |
| 2026-05-06 11:47 | 43.85883 | 5.99685 | 13808 ft | 457 kts | 313° |
| 2026-05-06 11:47 | 43.87623 | 5.96105 | 13864 ft | 445 kts | 289° |
| 2026-05-06 11:47 | 43.88130 | 5.91942 | 13916 ft | 436 kts | 265° |
| 2026-05-06 11:48 | 43.87351 | 5.87928 | 13951 ft | 433 kts | 242° |
| 2026-05-06 11:48 | 43.85432 | 5.84750 | 13933 ft | 435 kts | 219° |
| 2026-05-06 11:48 | 43.82692 | 5.82966 | 13858 ft | 442 kts | 195° |
| 2026-05-06 11:48 | 43.79641 | 5.82932 | 13735 ft | 453 kts | 171° |
| 2026-05-06 11:49 | 43.76746 | 5.84718 | 13562 ft | 465 kts | 147° |
| 2026-05-06 11:49 | 43.74588 | 5.88086 | 13422 ft | 476 kts | 122° |
| 2026-05-06 11:49 | 43.73598 | 5.92472 | 13295 ft | 484 kts | 97° |
| 2026-05-06 11:49 | 43.73993 | 5.97074 | 13187 ft | 488 kts | 72° |
| 2026-05-06 11:50 | 43.75730 | 6.01067 | 13060 ft | 488 kts | 46° |
| 2026-05-06 11:50 | 43.78495 | 6.03717 | 12949 ft | 484 kts | 21° |
| 2026-05-06 11:50 | 43.81744 | 6.04556 | 12960 ft | 473 kts | 356° |
| 2026-05-06 11:50 | 43.84874 | 6.03493 | 13056 ft | 460 kts | 331° |
| 2026-05-06 11:51 | 43.87332 | 6.00802 | 13159 ft | 447 kts | 306° |
| 2026-05-06 11:51 | 43.88722 | 5.97035 | 13271 ft | 437 kts | 283° |
| 2026-05-06 11:51 | 43.88865 | 5.92906 | 13449 ft | 429 kts | 259° |
| 2026-05-06 11:51 | 43.87780 | 5.89099 | 13636 ft | 426 kts | 236° |
| 2026-05-06 11:52 | 43.85656 | 5.86265 | 13753 ft | 428 kts | 213° |
| 2026-05-06 11:52 | 43.82844 | 5.84892 | 13740 ft | 438 kts | 189° |
| 2026-05-06 11:52 | 43.79790 | 5.85246 | 13770 ft | 440 kts | 168° |
| 2026-05-06 11:52 | 43.78092 | 5.87583 | 13885 ft | 346 kts | 133° |
| 2026-05-06 11:53 | 43.77244 | 5.89459 | 10079 ft | 130 kts | 211° |
| 2026-05-06 11:53 | 43.76426 | 5.88718 | 5637 ft | 143 kts | 230° |
| 2026-05-06 11:53 | 43.75409 | 5.87108 | 4025 ft | 295 kts | 231° |
| 2026-05-06 11:53 | 43.74153 | 5.84992 | 2620 ft | 267 kts | 233° |
| 2026-05-06 11:54 | 43.73145 | 5.83368 | 1886 ft | 207 kts | 234° |
| 2026-05-06 11:54 | 43.72578 | 5.81663 | 1208 ft | 185 kts | 252° |
| 2026-05-06 11:54 | 43.72191 | 5.80214 | 907 ft | 136 kts | 251° |
| 2026-05-06 11:54 | 43.71960 | 5.79229 | 888 ft | 68 kts | 253° |
| 2026-05-06 11:55 | 43.71934 | 5.79101 | 888 ft | 0 kts | 254° |